createdAt,value
2023-04-05T01:02:33.894Z,5.60
2023-04-05T01:05:09.832Z,5.30
2023-04-05T01:07:47.229Z,5.30
2023-04-05T01:10:16.435Z,5.20
2023-04-05T01:36:09.091Z,5.20
2023-04-05T01:38:39.961Z,5.00
2023-04-05T01:41:07.082Z,4.90
2023-04-05T01:43:33.907Z,4.80
2023-04-05T01:46:00.758Z,4.80
2023-04-05T01:48:27.556Z,4.80
2023-04-05T01:50:54.349Z,4.80
2023-04-05T01:53:21.781Z,4.70
2023-04-05T01:55:48.584Z,4.80
2023-04-05T01:58:15.409Z,4.70
2023-04-05T02:00:42.547Z,4.90
2023-04-05T02:03:09.717Z,4.70
2023-04-05T02:05:36.594Z,4.70
2023-04-05T02:08:03.400Z,4.70
2023-04-05T02:10:30.220Z,4.70
2023-04-05T03:58:51.938Z,4.70
2023-04-05T04:01:18.786Z,3.80
2023-04-05T04:03:45.578Z,3.80
2023-04-05T04:06:12.591Z,3.80
2023-04-05T04:08:39.576Z,3.70
2023-04-05T04:11:07.326Z,3.70
2023-04-05T04:13:34.230Z,3.70
2023-04-05T04:16:01.264Z,3.70
2023-04-05T04:18:28.091Z,3.70
2023-04-05T04:20:55.035Z,3.70
2023-04-05T04:23:21.935Z,3.70
2023-04-05T04:25:54.853Z,3.60
2023-04-05T04:28:24.989Z,3.60
2023-04-05T04:30:51.895Z,3.60
2023-04-05T04:33:19.963Z,3.60
2023-04-05T04:35:47.263Z,3.50
2023-04-05T04:38:18.910Z,3.50
2023-04-05T04:40:53.953Z,3.60
2023-04-05T04:43:27.277Z,3.50
2023-04-05T04:45:57.022Z,3.50
2023-04-05T04:48:23.858Z,3.50
2023-04-05T06:49:06.925Z,3.40
2023-04-05T06:51:33.717Z,4.00
2023-04-05T06:54:00.631Z,4.00
2023-04-05T06:56:27.959Z,4.10
2023-04-05T06:58:55.790Z,4.10
2023-04-05T07:01:24.904Z,4.10
2023-04-05T07:03:51.811Z,4.20
2023-04-05T07:06:18.685Z,4.10
2023-04-05T07:08:45.592Z,4.10
2023-04-05T07:11:13.747Z,4.20
2023-04-05T07:13:40.765Z,4.30
2023-04-05T07:16:07.812Z,4.20
2023-04-05T07:18:34.788Z,4.10
2023-04-05T07:21:02.088Z,4.20
2023-04-05T07:23:29.641Z,4.30
2023-04-05T07:26:04.521Z,4.70
2023-04-05T07:28:33.070Z,4.50
2023-04-05T07:30:59.998Z,4.60
2023-04-05T07:33:27.219Z,4.80
2023-04-05T07:35:54.986Z,4.90
2023-04-05T07:38:21.964Z,4.90
2023-04-05T07:40:52.020Z,5.00
2023-04-05T07:43:19.594Z,5.10
2023-04-05T07:45:46.691Z,5.10
2023-04-05T07:48:13.650Z,5.20
2023-04-05T07:50:41.405Z,5.20
2023-04-05T07:53:08.340Z,5.20
2023-04-05T07:55:38.283Z,5.30
2023-04-05T07:58:05.094Z,5.20
2023-04-05T08:00:31.960Z,5.50
2023-04-05T08:03:01.682Z,5.40
2023-04-05T08:05:29.523Z,5.30
2023-04-05T08:07:58.240Z,5.40
2023-04-05T08:10:25.637Z,5.50
2023-04-05T08:12:52.816Z,5.50
2023-04-05T08:15:19.652Z,5.50
2023-04-05T08:17:46.710Z,5.60
2023-04-05T08:20:13.814Z,5.60
2023-04-05T08:22:40.675Z,5.70
2023-04-05T08:25:08.203Z,5.70
2023-04-05T08:27:35.113Z,5.80
2023-04-05T08:30:02.015Z,5.90
2023-04-05T08:32:28.848Z,6.00
2023-04-05T08:34:55.863Z,5.90
2023-04-05T08:37:22.649Z,6.00
2023-04-05T08:39:49.522Z,6.10
2023-04-05T08:42:26.633Z,6.10
2023-04-05T08:44:54.336Z,6.30
2023-04-05T08:47:23.209Z,6.40
2023-04-05T08:49:50.467Z,6.40
2023-04-05T08:52:17.340Z,6.60
2023-04-05T08:54:44.198Z,6.60
2023-04-05T08:57:12.012Z,6.70
2023-04-05T08:59:42.738Z,6.80
2023-04-05T09:02:18.821Z,6.80
2023-04-05T09:04:47.666Z,7.00
2023-04-05T09:07:15.565Z,6.90
2023-04-05T09:09:53.036Z,6.90
2023-04-05T09:12:25.728Z,6.90
2023-04-05T09:14:52.568Z,7.00
2023-04-05T09:17:20.352Z,7.10
2023-04-05T09:19:50.371Z,7.20
2023-04-05T09:22:20.200Z,7.20
2023-04-05T09:24:47.531Z,7.20
2023-04-05T09:27:16.516Z,7.10
2023-04-05T09:29:45.555Z,7.30
2023-04-05T09:32:13.485Z,7.40
2023-04-05T09:34:42.424Z,7.40
2023-04-05T09:37:22.620Z,7.40
2023-04-05T09:39:52.002Z,7.70
2023-04-05T09:42:22.989Z,7.70
2023-04-05T09:44:56.357Z,7.70
2023-04-05T09:47:31.197Z,7.60
2023-04-05T09:49:59.226Z,7.70
2023-04-05T09:52:28.841Z,7.70
2023-04-05T09:54:57.312Z,7.70
2023-04-05T09:57:27.462Z,7.80
2023-04-05T09:59:55.041Z,7.90
2023-04-05T10:02:22.626Z,8.00
2023-04-05T10:04:50.205Z,8.00
2023-04-05T10:07:19.269Z,8.10
2023-04-05T10:09:48.286Z,8.10
2023-04-05T10:12:28.669Z,8.60
2023-04-05T10:14:57.070Z,8.80
2023-04-05T10:17:27.577Z,8.60
2023-04-05T10:20:16.813Z,8.70
2023-04-05T10:23:03.301Z,8.90
2023-04-05T10:25:53.221Z,8.70
2023-04-05T10:28:34.536Z,8.80
2023-04-05T10:31:37.148Z,9.30
2023-04-05T10:34:06.630Z,9.40
2023-04-05T11:09:21.133Z,9.60
2023-04-05T11:11:49.989Z,12.60
2023-04-05T11:26:43.467Z,12.40
2023-04-05T11:29:11.557Z,13.90
2023-04-05T11:31:58.617Z,12.80
2023-04-05T13:05:30.975Z,13.50
2023-04-05T13:07:58.747Z,15.50
2023-04-05T13:10:26.112Z,14.70
2023-04-05T13:12:53.024Z,14.90
2023-04-05T13:15:21.596Z,13.80
2023-04-05T13:17:50.376Z,14.70
2023-04-05T13:20:18.222Z,14.00
2023-04-05T13:22:46.136Z,14.90
2023-04-05T13:25:14.031Z,15.00
2023-04-05T13:27:41.065Z,14.70
2023-04-05T13:30:08.572Z,15.30
2023-04-05T13:32:35.814Z,15.40
2023-04-05T13:35:02.806Z,15.50
2023-04-05T13:37:29.577Z,16.80
2023-04-05T13:39:56.354Z,17.30
2023-04-05T13:42:24.236Z,17.10
2023-04-05T13:44:51.475Z,18.10
2023-04-05T13:47:18.325Z,17.10
2023-04-05T13:49:45.137Z,16.90
2023-04-05T13:52:12.237Z,15.70
2023-04-05T13:54:39.055Z,16.90
2023-04-05T13:57:06.439Z,18.40
2023-04-05T13:59:33.508Z,17.90
2023-04-05T14:02:00.823Z,15.70
2023-04-05T14:04:28.867Z,17.00
2023-04-05T14:06:55.740Z,16.90
2023-04-05T14:09:22.496Z,17.30
2023-04-05T14:11:49.411Z,17.60
2023-04-05T14:14:16.347Z,15.40
2023-04-05T14:16:43.466Z,15.30
2023-04-05T14:19:10.476Z,16.60
2023-04-05T14:21:37.384Z,16.40
2023-04-05T14:24:04.332Z,16.20
2023-04-05T14:26:31.208Z,16.00
2023-04-05T14:28:58.162Z,17.40
2023-04-05T14:31:27.697Z,17.50
2023-04-05T14:33:54.706Z,16.90
2023-04-05T14:36:21.644Z,17.70
2023-04-05T14:38:48.537Z,17.00
2023-04-05T14:41:15.544Z,15.70
2023-04-05T14:43:42.437Z,15.50
2023-04-05T14:46:09.312Z,14.50
2023-04-05T14:48:37.439Z,15.20
2023-04-05T14:51:05.527Z,14.40
2023-04-05T14:53:32.627Z,14.90
2023-04-05T14:55:59.874Z,15.30
2023-04-05T14:58:29.161Z,15.50
2023-04-05T15:00:56.973Z,15.50
2023-04-05T15:03:24.915Z,15.40
2023-04-05T15:05:51.922Z,16.40
2023-04-05T15:08:18.811Z,15.30
2023-04-05T15:10:46.226Z,14.40
2023-04-05T15:13:13.230Z,15.20
2023-04-05T15:15:40.399Z,14.60
2023-04-05T15:18:10.642Z,16.20
2023-04-05T15:20:37.989Z,15.90
2023-04-05T15:23:05.482Z,14.40
2023-04-05T15:25:33.710Z,16.20
2023-04-05T15:28:04.731Z,16.10
2023-04-05T15:30:33.529Z,15.60
2023-04-05T15:33:00.717Z,14.40
2023-04-05T15:35:27.850Z,14.00
2023-04-05T15:37:54.826Z,13.90
2023-04-05T15:40:21.717Z,15.60
2023-04-05T15:42:49.200Z,15.90
2023-04-05T15:45:16.341Z,15.80
2023-04-05T15:47:43.629Z,15.80
2023-04-05T15:50:10.619Z,16.10
2023-04-05T15:52:37.644Z,15.70
2023-04-05T15:55:04.822Z,15.50
2023-04-05T15:57:31.765Z,15.70
2023-04-05T15:59:58.736Z,15.40
2023-04-05T16:02:25.796Z,15.30
2023-04-05T16:04:52.800Z,15.00
2023-04-05T16:07:19.647Z,15.10
2023-04-05T16:09:46.641Z,15.00
2023-04-05T16:12:13.537Z,14.60
2023-04-05T16:14:40.459Z,15.00
2023-04-05T16:17:07.463Z,15.10
2023-04-05T16:19:34.325Z,14.70
2023-04-05T16:22:03.088Z,14.90
2023-04-05T16:24:31.432Z,15.00
2023-04-05T16:26:58.720Z,14.70
